Hors Challenge

Le Jogging Du Souvenir - Rochefort (6.00 km)

samedi 12 juin 2021

Vous pouvez trouver Le classement original sur : http://ultratiming.be  
 
LE JOGGING DU SOUVENIR - ROCHEFORT
DISTANCE : 6.00 km
samedi 12 juin 2021
 
Place dos NOM Catégorie Pl/cat temps temps/km Vitesse
01:00:00              
1 7031 ROBIN MICHAEL V1H 1 0:25:03 04:10 14.38
2 7041 DEPORTER NICOLAS MIH 1 0:26:43 04:27 13.48
3 7080 DETROZ OLIVIER SEH 1 0:28:59 04:50 12.43
4 7001 NOAM ROBIN XXX   0:29:22 04:53 12.27
5 7063 GERARDY HERVE ESPH 1 0:29:32 04:55 12.20
6 7072 SHAMSI SAID JUH 1 0:29:36 04:56 12.17
7 7075 IBRARKHEL HELAL JUH 2 0:29:47 04:58 12.09
8 7026 KECH HUGO BEG 1 0:29:50 04:58 12.07
9 7027 KECH MICHAEL V1H 2 0:29:50 04:58 12.07
10 7054 LEODET JULIEN SEH 2 0:31:12 05:12 11.55
11 7602 GAGLIANONE MARC SEH 3 0:32:04 05:20 11.23
12 7601 YANNOU PATRICK SEH 4 0:32:07 05:21 11.22
13 7036 WELVAERT JULES V3H 1 0:32:31 05:25 11.08
14 7074 SHERZAEL FAWEEL JUH 3 0:32:55 05:29 10.94
15 7076 MOHAMMAULI WAHID CAH 1 0:32:55 05:29 10.94
16 7007 COLLIGNON LUCA MIH 2 0:33:59 05:40 10.60
17 7038 MARECHAL THIBAULT POG 1 0:34:11 05:42 10.54
18 7040 JERGEAY LAURENCE 1 1 0:36:18 06:03 9.92
19 7020 GRÉGOIRE PATRICIA V1F 1 0:36:19 06:03 9.92
20 7011 DEFECHE ALAIN V2H 1 0:36:28 06:04 9.88
21 7017 FLAMME SÉBASTIEN V1H 3 0:36:56 06:09 9.75
22 7056 DUBOIS BENEDICTE V2F 1 0:37:04 06:10 9.72
23 7081 DELMAIL LÉVI V1H 4 0:37:11 06:12 9.69
24 7002 BAQUET STÉPHANIE V1F 2 0:37:18 06:13 9.66
25 7079 SONCK INGRID V1F 3 0:37:19 06:13 9.65
26 7078 POCHET BENOIT V2H 2 0:37:20 06:13 9.65
27 7010 DE GREEFF STEPHANIE V1F 4 0:37:33 06:15 9.59
28 7037 SCHLEISTER MARIE FLORE V1F 5 0:38:22 06:23 9.39
29 7077 HAGOOM ROHORNI CAH 2 0:38:36 06:26 9.33
30 7009 COURTOIS SANDRINA V2F 2 0:39:11 06:32 9.19
31 7014 DELOYER ETIENNE V2H 3 0:39:12 06:32 9.19
32 7032 ROBIN SACHA POG 2 0:39:34 06:35 9.10
33 7039 JERGEAY ANNE V1F 6 0:40:47 06:48 8.83
34 7042 DAUVIN STEPHANIE V1F 7 0:41:26 06:54 8.69
35 7003 BAUDHUIN YVES V1H 5 0:41:30 06:55 8.68
36 7035 WAVREIL DAMIEN SEH 5 0:42:01 07:00 8.57
37 7004 BROHET ALAIN V2H 4 0:43:35 07:16 8.27
38 7025 JEANBAPTISTE ERIC V2H 5 0:43:36 07:16 8.26
39 7058 DEMARS MATHYS BEG 2 0:43:45 07:17 8.23
40 7024 JEAN-PHILIPPE WAVREIL V2H 6 0:46:15 07:42 7.79
41 7057 LAMBOTTE JEAN BERNARD V4H 1 0:47:38 07:56 7.56
42 7044 KEFFER AUDELINE SEF 1 0:53:12 08:52 6.77
43 7006 COLLARD YOLANDE SEF 2 0:53:16 08:52 6.76
44 7043 ADAM DOMINQUE V2F 3 0:53:26 08:54 6.74
45 7016 DEWEZ LAURENCE V1F 8 0:56:26 09:24 6.38
46 7048 DEFECHE TOM BEG 3 1:05:47 10:57 5.48
47 7049 CORSO YOANA BEG 4 1:05:51 10:58 5.47
48 7050 DEFECHE ROMANE BEF 1 1:06:04 11:00 5.45
49 7047 GOBLET SONIA V1F 9 1:06:06 11:01 5.45
50 7062 DEMARS DELPHINE V1F 10 1:07:25 11:14 5.34
51 7064 7064 N.N. 1 2 1:07:26 11:14 5.34
52 7066 GILSON FABIENNE V3F 1 1:09:30 11:35 5.18
53 7012 DEFOY BÉNÉDICTE V1F 11 1:09:31 11:35 5.18
54 7060 DE CATELLE MATEO POG 3 1:11:17 11:52 5.05
55 7059 DEMARS AMANDINE MIF 1 1:11:17 11:52 5.05
56 7431 GÉRARDY HERVÉ V1H 6 1:25:01 14:10 4.24
57 7033 ROLLIN FRANÇOIS V2H 7 1:28:00 14:39 4.09
58 7022 HAUTOT ALEXANDRA V1F 12 1:28:03 14:40 4.09
59 7045 GILLET NELLY V3F 2 1:31:44 15:17 3.93
60 7019 GILLET MARIE PAULE V3F 3 1:31:59 15:19 3.92
61 7018 GERMAIN ANITA V3F 4 1:32:00 15:19 3.92
62 7046 GODFRIND MONIQUE V4F 1 1:32:09 15:21 3.91
63 7052 GABRIEL SOPHIE SEF 3 1:41:57 16:59 3.53
64 7051 GABRIEL MARINE ESPF 1 1:42:01 17:00 3.53
65 7248 BOURGUINON ANNE V1F 13 2:23:25 23:53 2.51
               
Nos dernières videos